sensor_id;sensor_type;location;lat;lon;timestamp;pressure;altitude;pressure_sealevel;temperature;humidity
43420;BME280;29017;51.514;-0.178;2023-05-08T00:00:15;101623.69;;;16.89;85.28
43420;BME280;29017;51.514;-0.178;2023-05-08T00:02:42;101622.03;;;16.88;86.12
43420;BME280;29017;51.514;-0.178;2023-05-08T00:05:10;101615.06;;;16.87;87.83
43420;BME280;29017;51.514;-0.178;2023-05-08T00:07:37;101615.78;;;16.81;86.53
43420;BME280;29017;51.514;-0.178;2023-05-08T00:10:06;101617.75;;;16.79;86.42
43420;BME280;29017;51.514;-0.178;2023-05-08T00:12:34;101611.47;;;16.80;86.82
43420;BME280;29017;51.514;-0.178;2023-05-08T00:15:03;101598.16;;;16.80;86.97
43420;BME280;29017;51.514;-0.178;2023-05-08T00:17:30;101598.63;;;16.83;88.51
43420;BME280;29017;51.514;-0.178;2023-05-08T00:19:58;101601.47;;;16.82;88.00
43420;BME280;29017;51.514;-0.178;2023-05-08T00:22:25;101605.16;;;16.81;88.99
43420;BME280;29017;51.514;-0.178;2023-05-08T00:24:53;101602.66;;;16.79;89.67
43420;BME280;29017;51.514;-0.178;2023-05-08T00:27:20;101603.81;;;16.77;88.72
43420;BME280;29017;51.514;-0.178;2023-05-08T00:29:48;101598.03;;;16.73;88.25
43420;BME280;29017;51.514;-0.178;2023-05-08T00:32:16;101592.53;;;16.75;90.62
43420;BME280;29017;51.514;-0.178;2023-05-08T00:34:43;101598.84;;;16.74;90.14
43420;BME280;29017;51.514;-0.178;2023-05-08T00:37:11;101586.91;;;16.70;89.41
43420;BME280;29017;51.514;-0.178;2023-05-08T00:39:38;101590.41;;;16.70;91.51
43420;BME280;29017;51.514;-0.178;2023-05-08T00:42:06;101591.94;;;16.64;90.35
43420;BME280;29017;51.514;-0.178;2023-05-08T00:44:33;101584.47;;;16.60;90.71
43420;BME280;29017;51.514;-0.178;2023-05-08T00:47:01;101584.13;;;16.55;91.30
43420;BME280;29017;51.514;-0.178;2023-05-08T00:49:28;101582.63;;;16.52;90.67
43420;BME280;29017;51.514;-0.178;2023-05-08T00:51:55;101579.66;;;16.47;89.64
43420;BME280;29017;51.514;-0.178;2023-05-08T00:54:25;101583.53;;;16.45;89.47
43420;BME280;29017;51.514;-0.178;2023-05-08T00:56:53;101579.19;;;16.44;89.36
43420;BME280;29017;51.514;-0.178;2023-05-08T00:59:21;101581.03;;;16.43;89.40
43420;BME280;29017;51.514;-0.178;2023-05-08T01:01:51;101575.72;;;16.43;89.45
43420;BME280;29017;51.514;-0.178;2023-05-08T01:04:20;101575.03;;;16.41;90.08
43420;BME280;29017;51.514;-0.178;2023-05-08T01:06:49;101576.88;;;16.41;89.92
43420;BME280;29017;51.514;-0.178;2023-05-08T01:09:17;101568.44;;;16.37;89.44
43420;BME280;29017;51.514;-0.178;2023-05-08T01:16:57;101572.75;;;16.38;92.69
43420;BME280;29017;51.514;-0.178;2023-05-08T01:24:40;101576.44;;;16.29;90.19
43420;BME280;29017;51.514;-0.178;2023-05-08T01:27:17;101568.78;;;16.26;90.27
43420;BME280;29017;51.514;-0.178;2023-05-08T01:37:30;101572.63;;;16.15;90.53
43420;BME280;29017;51.514;-0.178;2023-05-08T01:40:07;101569.19;;;16.15;90.57
43420;BME280;29017;51.514;-0.178;2023-05-08T01:45:15;101566.22;;;16.10;90.66
43420;BME280;29017;51.514;-0.178;2023-05-08T01:47:49;101562.72;;;16.09;91.20
43420;BME280;29017;51.514;-0.178;2023-05-08T01:50:22;101570.84;;;16.08;90.99
43420;BME280;29017;51.514;-0.178;2023-05-08T01:52:57;101566.53;;;16.07;90.90
43420;BME280;29017;51.514;-0.178;2023-05-08T01:55:30;101567.53;;;16.06;91.39
43420;BME280;29017;51.514;-0.178;2023-05-08T01:58:01;101571.22;;;16.05;91.82
43420;BME280;29017;51.514;-0.178;2023-05-08T02:00:30;101573.03;;;16.04;91.48
43420;BME280;29017;51.514;-0.178;2023-05-08T02:02:59;101572.84;;;16.06;91.33
43420;BME280;29017;51.514;-0.178;2023-05-08T02:05:27;101570.38;;;16.04;91.43
43420;BME280;29017;51.514;-0.178;2023-05-08T02:07:56;101573.03;;;16.04;92.19
43420;BME280;29017;51.514;-0.178;2023-05-08T02:10:25;101579.34;;;16.03;91.41
43420;BME280;29017;51.514;-0.178;2023-05-08T02:12:55;101579.34;;;16.03;90.78
43420;BME280;29017;51.514;-0.178;2023-05-08T02:15:23;101580.16;;;16.04;91.42
43420;BME280;29017;51.514;-0.178;2023-05-08T02:17:53;101581.81;;;16.05;92.37
43420;BME280;29017;51.514;-0.178;2023-05-08T02:20:21;101574.66;;;16.05;93.06
43420;BME280;29017;51.514;-0.178;2023-05-08T02:22:50;101591.44;;;16.06;92.97
43420;BME280;29017;51.514;-0.178;2023-05-08T02:25:18;101578.50;;;16.03;92.44
43420;BME280;29017;51.514;-0.178;2023-05-08T02:27:46;101581.81;;;15.97;91.99
43420;BME280;29017;51.514;-0.178;2023-05-08T02:30:16;101583.31;;;15.91;92.00
43420;BME280;29017;51.514;-0.178;2023-05-08T02:32:45;101574.53;;;15.91;93.39
43420;BME280;29017;51.514;-0.178;2023-05-08T02:35:16;101575.38;;;15.91;93.50
43420;BME280;29017;51.514;-0.178;2023-05-08T02:37:47;101574.88;;;15.88;92.55
43420;BME280;29017;51.514;-0.178;2023-05-08T02:40:16;101576.88;;;15.86;92.08
43420;BME280;29017;51.514;-0.178;2023-05-08T02:42:44;101569.94;;;15.85;92.11
43420;BME280;29017;51.514;-0.178;2023-05-08T02:45:13;101572.75;;;15.83;92.80
43420;BME280;29017;51.514;-0.178;2023-05-08T02:52:53;101564.44;;;15.78;92.61
43420;BME280;29017;51.514;-0.178;2023-05-08T02:58:07;101562.81;;;15.69;92.27
43420;BME280;29017;51.514;-0.178;2023-05-08T03:00:44;101561.00;;;15.69;93.14
43420;BME280;29017;51.514;-0.178;2023-05-08T03:05:50;101567.44;;;15.67;92.50
43420;BME280;29017;51.514;-0.178;2023-05-08T03:08:24;101558.50;;;15.68;92.75
43420;BME280;29017;51.514;-0.178;2023-05-08T03:10:55;101557.19;;;15.64;92.76
43420;BME280;29017;51.514;-0.178;2023-05-08T03:13:25;101562.66;;;15.62;93.89
43420;BME280;29017;51.514;-0.178;2023-05-08T03:15:57;101561.81;;;15.62;94.70
43420;BME280;29017;51.514;-0.178;2023-05-08T03:18:35;101562.31;;;15.57;94.50
43420;BME280;29017;51.514;-0.178;2023-05-08T03:21:03;101556.53;;;15.54;94.43
43420;BME280;29017;51.514;-0.178;2023-05-08T03:23:32;101552.69;;;15.48;93.23
43420;BME280;29017;51.514;-0.178;2023-05-08T03:26:02;101552.84;;;15.47;93.32
43420;BME280;29017;51.514;-0.178;2023-05-08T03:28:30;101552.00;;;15.46;94.39
43420;BME280;29017;51.514;-0.178;2023-05-08T03:30:59;101556.47;;;15.46;94.09
43420;BME280;29017;51.514;-0.178;2023-05-08T03:33:28;101555.00;;;15.43;93.46
43420;BME280;29017;51.514;-0.178;2023-05-08T03:35:56;101555.00;;;15.43;94.30
43420;BME280;29017;51.514;-0.178;2023-05-08T03:38:24;101555.16;;;15.41;94.16
43420;BME280;29017;51.514;-0.178;2023-05-08T03:40:51;101551.84;;;15.39;93.20
43420;BME280;29017;51.514;-0.178;2023-05-08T03:43:19;101551.69;;;15.41;93.64
43420;BME280;29017;51.514;-0.178;2023-05-08T03:45:47;101553.50;;;15.40;93.57
43420;BME280;29017;51.514;-0.178;2023-05-08T03:48:15;101556.16;;;15.40;92.88
43420;BME280;29017;51.514;-0.178;2023-05-08T03:50:44;101547.22;;;15.41;93.32
43420;BME280;29017;51.514;-0.178;2023-05-08T03:53:11;101547.38;;;15.40;93.52
43420;BME280;29017;51.514;-0.178;2023-05-08T03:55:39;101552.66;;;15.40;94.10
43420;BME280;29017;51.514;-0.178;2023-05-08T04:00:56;101542.41;;;15.37;93.33
43420;BME280;29017;51.514;-0.178;2023-05-08T04:06:11;101548.34;;;15.39;95.63
43420;BME280;29017;51.514;-0.178;2023-05-08T04:08:46;101541.91;;;15.33;95.15
43420;BME280;29017;51.514;-0.178;2023-05-08T04:11:21;101538.59;;;15.31;95.71
43420;BME280;29017;51.514;-0.178;2023-05-08T04:13:59;101540.41;;;15.31;95.54
43420;BME280;29017;51.514;-0.178;2023-05-08T04:16:29;101534.28;;;15.30;96.28
43420;BME280;29017;51.514;-0.178;2023-05-08T04:19:01;101540.56;;;15.29;95.67
43420;BME280;29017;51.514;-0.178;2023-05-08T04:21:31;101532.28;;;15.24;95.28
43420;BME280;29017;51.514;-0.178;2023-05-08T04:24:02;101534.28;;;15.22;95.21
43420;BME280;29017;51.514;-0.178;2023-05-08T04:26:30;101541.25;;;15.23;94.59
43420;BME280;29017;51.514;-0.178;2023-05-08T04:28:58;101530.81;;;15.22;95.13
43420;BME280;29017;51.514;-0.178;2023-05-08T04:31:26;101541.72;;;15.19;94.29
43420;BME280;29017;51.514;-0.178;2023-05-08T04:33:54;101538.28;;;15.18;94.45
43420;BME280;29017;51.514;-0.178;2023-05-08T04:36:22;101536.41;;;15.19;93.91
43420;BME280;29017;51.514;-0.178;2023-05-08T04:38:49;101537.25;;;15.19;93.56
43420;BME280;29017;51.514;-0.178;2023-05-08T04:41:16;101534.44;;;15.21;93.44
43420;BME280;29017;51.514;-0.178;2023-05-08T04:43:44;101539.59;;;15.22;93.06
43420;BME280;29017;51.514;-0.178;2023-05-08T04:46:11;101534.94;;;15.24;92.65
43420;BME280;29017;51.514;-0.178;2023-05-08T04:48:38;101538.25;;;15.26;92.30
43420;BME280;29017;51.514;-0.178;2023-05-08T04:51:06;101532.81;;;15.28;92.03
43420;BME280;29017;51.514;-0.178;2023-05-08T04:53:33;101530.16;;;15.28;92.05
43420;BME280;29017;51.514;-0.178;2023-05-08T04:56:00;101531.78;;;15.29;92.31
43420;BME280;29017;51.514;-0.178;2023-05-08T04:58:27;101528.31;;;15.28;92.28
43420;BME280;29017;51.514;-0.178;2023-05-08T05:00:54;101526.47;;;15.29;92.03
43420;BME280;29017;51.514;-0.178;2023-05-08T05:03:22;101527.16;;;15.31;92.27
43420;BME280;29017;51.514;-0.178;2023-05-08T05:05:56;101529.78;;;15.39;94.24
43420;BME280;29017;51.514;-0.178;2023-05-08T05:08:24;101531.28;;;15.41;94.88
43420;BME280;29017;51.514;-0.178;2023-05-08T05:10:51;101535.41;;;15.44;94.88
43420;BME280;29017;51.514;-0.178;2023-05-08T05:13:18;101535.41;;;15.44;93.45
43420;BME280;29017;51.514;-0.178;2023-05-08T05:15:46;101542.38;;;15.45;92.00
43420;BME280;29017;51.514;-0.178;2023-05-08T05:18:13;101540.25;;;15.49;91.23
43420;BME280;29017;51.514;-0.178;2023-05-08T05:20:40;101550.38;;;15.53;91.36
43420;BME280;29017;51.514;-0.178;2023-05-08T05:23:07;101549.88;;;15.58;92.01
43420;BME280;29017;51.514;-0.178;2023-05-08T05:25:35;101545.22;;;15.60;90.95
43420;BME280;29017;51.514;-0.178;2023-05-08T05:28:02;101551.19;;;15.62;90.06
43420;BME280;29017;51.514;-0.178;2023-05-08T05:30:29;101553.84;;;15.62;89.74
43420;BME280;29017;51.514;-0.178;2023-05-08T05:32:56;101567.78;;;15.64;89.37
43420;BME280;29017;51.514;-0.178;2023-05-08T05:35:24;101558.00;;;15.64;89.50
43420;BME280;29017;51.514;-0.178;2023-05-08T05:37:51;101557.50;;;15.69;90.76
43420;BME280;29017;51.514;-0.178;2023-05-08T05:40:18;101561.78;;;15.70;90.24
43420;BME280;29017;51.514;-0.178;2023-05-08T05:42:48;101567.94;;;15.70;89.74
43420;BME280;29017;51.514;-0.178;2023-05-08T05:45:16;101564.78;;;15.75;89.37
43420;BME280;29017;51.514;-0.178;2023-05-08T05:47:44;101577.72;;;15.78;88.68
43420;BME280;29017;51.514;-0.178;2023-05-08T05:50:12;101570.75;;;15.77;87.78
43420;BME280;29017;51.514;-0.178;2023-05-08T05:52:40;101569.41;;;15.81;88.59
43420;BME280;29017;51.514;-0.178;2023-05-08T05:55:07;101567.28;;;15.85;88.30
43420;BME280;29017;51.514;-0.178;2023-05-08T05:57:34;101564.44;;;15.86;87.05
43420;BME280;29017;51.514;-0.178;2023-05-08T06:00:03;101570.41;;;15.88;86.88
43420;BME280;29017;51.514;-0.178;2023-05-08T06:02:31;101575.03;;;15.86;85.13
43420;BME280;29017;51.514;-0.178;2023-05-08T06:05:00;101583.31;;;15.91;85.42
43420;BME280;29017;51.514;-0.178;2023-05-08T06:07:27;101578.53;;;15.95;84.17
43420;BME280;29017;51.514;-0.178;2023-05-08T06:09:54;101576.00;;;16.01;83.63
43420;BME280;29017;51.514;-0.178;2023-05-08T06:12:22;101574.50;;;16.07;82.54
43420;BME280;29017;51.514;-0.178;2023-05-08T06:14:50;101581.63;;;16.14;83.18
43420;BME280;29017;51.514;-0.178;2023-05-08T06:17:18;101579.94;;;16.21;82.24
43420;BME280;29017;51.514;-0.178;2023-05-08T06:19:45;101586.06;;;16.30;81.59
43420;BME280;29017;51.514;-0.178;2023-05-08T06:22:16;101583.72;;;16.35;81.15
43420;BME280;29017;51.514;-0.178;2023-05-08T06:24:44;101591.13;;;16.48;81.08
43420;BME280;29017;51.514;-0.178;2023-05-08T06:27:11;101592.63;;;16.58;81.47
43420;BME280;29017;51.514;-0.178;2023-05-08T06:29:38;101592.63;;;16.58;80.35
43420;BME280;29017;51.514;-0.178;2023-05-08T06:32:06;101593.56;;;16.57;80.67
43420;BME280;29017;51.514;-0.178;2023-05-08T06:34:33;101594.09;;;16.53;80.32
43420;BME280;29017;51.514;-0.178;2023-05-08T06:37:00;101600.75;;;16.49;79.47
43420;BME280;29017;51.514;-0.178;2023-05-08T06:39:27;101598.94;;;16.41;79.75
43420;BME280;29017;51.514;-0.178;2023-05-08T06:41:54;101598.00;;;16.34;79.65
43420;BME280;29017;51.514;-0.178;2023-05-08T06:44:22;101598.50;;;16.30;80.23
43420;BME280;29017;51.514;-0.178;2023-05-08T06:46:49;101603.31;;;16.26;81.51
43420;BME280;29017;51.514;-0.178;2023-05-08T06:49:16;101609.78;;;16.32;82.76
43420;BME280;29017;51.514;-0.178;2023-05-08T06:51:43;101611.59;;;16.31;82.07
43420;BME280;29017;51.514;-0.178;2023-05-08T06:54:11;101606.81;;;16.26;81.72
43420;BME280;29017;51.514;-0.178;2023-05-08T06:56:38;101604.66;;;16.22;81.71
43420;BME280;29017;51.514;-0.178;2023-05-08T06:59:05;101604.19;;;16.18;82.39
43420;BME280;29017;51.514;-0.178;2023-05-08T07:01:34;101605.03;;;16.19;82.43
43420;BME280;29017;51.514;-0.178;2023-05-08T07:04:03;101611.47;;;16.16;82.72
43420;BME280;29017;51.514;-0.178;2023-05-08T07:06:31;101610.13;;;16.20;82.91
43420;BME280;29017;51.514;-0.178;2023-05-08T07:08:58;101620.59;;;16.22;83.15
43420;BME280;29017;51.514;-0.178;2023-05-08T07:11:25;101619.59;;;16.23;83.11
43420;BME280;29017;51.514;-0.178;2023-05-08T07:13:52;101621.09;;;16.25;82.53
43420;BME280;29017;51.514;-0.178;2023-05-08T07:16:20;101626.75;;;16.22;82.02
43420;BME280;29017;51.514;-0.178;2023-05-08T07:18:47;101622.94;;;16.17;82.13
43420;BME280;29017;51.514;-0.178;2023-05-08T07:21:15;101618.66;;;16.08;81.43
43420;BME280;29017;51.514;-0.178;2023-05-08T07:23:44;101621.63;;;16.13;83.98
43420;BME280;29017;51.514;-0.178;2023-05-08T07:26:11;101621.09;;;16.25;83.80
43420;BME280;29017;51.514;-0.178;2023-05-08T07:28:38;101616.09;;;16.31;82.11
43420;BME280;29017;51.514;-0.178;2023-05-08T07:31:05;101622.53;;;16.36;82.57
43420;BME280;29017;51.514;-0.178;2023-05-08T07:33:33;101616.41;;;16.36;80.76
43420;BME280;29017;51.514;-0.178;2023-05-08T07:36:00;101619.22;;;16.42;81.45
43420;BME280;29017;51.514;-0.178;2023-05-08T07:38:28;101616.03;;;16.47;80.96
43420;BME280;29017;51.514;-0.178;2023-05-08T07:40:55;101608.72;;;16.49;80.60
43420;BME280;29017;51.514;-0.178;2023-05-08T07:43:23;101612.03;;;16.51;80.51
43420;BME280;29017;51.514;-0.178;2023-05-08T07:45:51;101611.03;;;16.52;80.42
43420;BME280;29017;51.514;-0.178;2023-05-08T07:48:18;101604.72;;;16.53;80.69
43420;BME280;29017;51.514;-0.178;2023-05-08T07:50:48;101609.88;;;16.54;80.58
43420;BME280;29017;51.514;-0.178;2023-05-08T07:53:16;101616.03;;;16.55;80.68
43420;BME280;29017;51.514;-0.178;2023-05-08T07:55:44;101608.88;;;16.55;81.35
43420;BME280;29017;51.514;-0.178;2023-05-08T07:58:11;101604.22;;;16.57;80.88
43420;BME280;29017;51.514;-0.178;2023-05-08T08:00:38;101612.69;;;16.61;80.83
43420;BME280;29017;51.514;-0.178;2023-05-08T08:03:06;101603.25;;;16.58;80.41
43420;BME280;29017;51.514;-0.178;2023-05-08T08:05:34;101601.25;;;16.60;81.10
43420;BME280;29017;51.514;-0.178;2023-05-08T08:08:01;101595.41;;;16.65;82.32
43420;BME280;29017;51.514;-0.178;2023-05-08T08:10:28;101604.53;;;16.71;80.67
43420;BME280;29017;51.514;-0.178;2023-05-08T08:12:57;101603.69;;;16.70;79.98
43420;BME280;29017;51.514;-0.178;2023-05-08T08:15:24;101595.19;;;16.75;81.39
43420;BME280;29017;51.514;-0.178;2023-05-08T08:17:51;101599.53;;;16.76;80.26
43420;BME280;29017;51.514;-0.178;2023-05-08T08:20:19;101601.16;;;16.77;79.90
43420;BME280;29017;51.514;-0.178;2023-05-08T08:22:46;101601.81;;;16.79;80.84
43420;BME280;29017;51.514;-0.178;2023-05-08T08:25:14;101601.16;;;16.77;79.41
43420;BME280;29017;51.514;-0.178;2023-05-08T08:27:41;101602.34;;;16.74;79.13
43420;BME280;29017;51.514;-0.178;2023-05-08T08:30:09;101599.84;;;16.73;79.66
43420;BME280;29017;51.514;-0.178;2023-05-08T08:32:44;101602.88;;;16.70;78.88
43420;BME280;29017;51.514;-0.178;2023-05-08T08:35:12;101593.91;;;16.71;79.05
43420;BME280;29017;51.514;-0.178;2023-05-08T08:37:40;101594.91;;;16.70;79.08
43420;BME280;29017;51.514;-0.178;2023-05-08T08:40:08;101592.22;;;16.70;80.08
43420;BME280;29017;51.514;-0.178;2023-05-08T08:42:35;101593.69;;;16.72;79.51
43420;BME280;29017;51.514;-0.178;2023-05-08T08:45:03;101588.69;;;16.77;79.54
43420;BME280;29017;51.514;-0.178;2023-05-08T08:47:34;101590.81;;;16.82;79.01
43420;BME280;29017;51.514;-0.178;2023-05-08T08:50:05;101582.81;;;16.90;79.43
43420;BME280;29017;51.514;-0.178;2023-05-08T08:55:06;101587.25;;;16.97;78.98
43420;BME280;29017;51.514;-0.178;2023-05-08T08:57:38;101582.72;;;17.06;78.98
43420;BME280;29017;51.514;-0.178;2023-05-08T09:00:12;101579.00;;;17.15;78.08
43420;BME280;29017;51.514;-0.178;2023-05-08T09:02:39;101571.47;;;17.19;76.70
43420;BME280;29017;51.514;-0.178;2023-05-08T09:05:07;101570.31;;;17.21;76.83
43420;BME280;29017;51.514;-0.178;2023-05-08T09:07:37;101569.94;;;17.24;76.84
43420;BME280;29017;51.514;-0.178;2023-05-08T09:10:05;101569.78;;;17.26;76.83
43420;BME280;29017;51.514;-0.178;2023-05-08T09:12:33;101573.91;;;17.28;76.69
43420;BME280;29017;51.514;-0.178;2023-05-08T09:15:00;101568.41;;;17.30;76.93
43420;BME280;29017;51.514;-0.178;2023-05-08T09:17:28;101572.38;;;17.34;77.23
43420;BME280;29017;51.514;-0.178;2023-05-08T09:19:55;101572.81;;;17.37;76.39
43420;BME280;29017;51.514;-0.178;2023-05-08T09:22:23;101569.16;;;17.38;75.61
43420;BME280;29017;51.514;-0.178;2023-05-08T09:24:57;101576.69;;;17.35;74.55
43420;BME280;29017;51.514;-0.178;2023-05-08T09:27:27;101572.06;;;17.29;75.12
43420;BME280;29017;51.514;-0.178;2023-05-08T09:32:29;101574.81;;;17.21;75.84
43420;BME280;29017;51.514;-0.178;2023-05-08T09:34:56;101573.31;;;17.18;75.61
43420;BME280;29017;51.514;-0.178;2023-05-08T09:37:25;101577.09;;;17.24;76.26
43420;BME280;29017;51.514;-0.178;2023-05-08T09:39:53;101575.41;;;17.31;76.01
43420;BME280;29017;51.514;-0.178;2023-05-08T09:42:20;101576.22;;;17.31;75.61
43420;BME280;29017;51.514;-0.178;2023-05-08T09:44:51;101569.41;;;17.29;74.23
43420;BME280;29017;51.514;-0.178;2023-05-08T09:47:21;101567.28;;;17.24;74.69
43420;BME280;29017;51.514;-0.178;2023-05-08T09:52:23;101565.81;;;17.22;76.02
43420;BME280;29017;51.514;-0.178;2023-05-08T09:57:25;101566.34;;;17.17;76.82
43420;BME280;29017;51.514;-0.178;2023-05-08T10:02:31;101571.16;;;17.22;77.15
43420;BME280;29017;51.514;-0.178;2023-05-08T10:04:58;101564.09;;;17.29;77.19
43420;BME280;29017;51.514;-0.178;2023-05-08T10:07:28;101563.75;;;17.32;76.92
43420;BME280;29017;51.514;-0.178;2023-05-08T10:09:58;101561.88;;;17.32;77.17
43420;BME280;29017;51.514;-0.178;2023-05-08T10:12:27;101558.13;;;17.27;75.95
43420;BME280;29017;51.514;-0.178;2023-05-08T10:14:54;101553.88;;;17.18;75.97
43420;BME280;29017;51.514;-0.178;2023-05-08T10:17:25;101551.41;;;17.16;76.79
43420;BME280;29017;51.514;-0.178;2023-05-08T10:19:57;101547.09;;;17.15;76.65
43420;BME280;29017;51.514;-0.178;2023-05-08T10:22:27;101539.56;;;17.19;77.06
43420;BME280;29017;51.514;-0.178;2023-05-08T10:24:56;101536.84;;;17.27;77.14
43420;BME280;29017;51.514;-0.178;2023-05-08T10:27:31;101535.00;;;17.27;76.18
43420;BME280;29017;51.514;-0.178;2023-05-08T10:30:03;101524.34;;;17.27;75.87
43420;BME280;29017;51.514;-0.178;2023-05-08T10:32:36;101523.19;;;17.30;76.33
43420;BME280;29017;51.514;-0.178;2023-05-08T10:35:09;101518.97;;;17.35;77.01
43420;BME280;29017;51.514;-0.178;2023-05-08T10:37:38;101523.59;;;17.41;77.21
43420;BME280;29017;51.514;-0.178;2023-05-08T10:40:06;101515.41;;;17.43;77.63
43420;BME280;29017;51.514;-0.178;2023-05-08T10:42:35;101524.50;;;17.48;78.93
43420;BME280;29017;51.514;-0.178;2023-05-08T10:45:04;101508.66;;;17.55;80.13
43420;BME280;29017;51.514;-0.178;2023-05-08T10:52:46;101512.91;;;17.64;78.31
43420;BME280;29017;51.514;-0.178;2023-05-08T11:00:23;101506.88;;;17.85;76.08
43420;BME280;29017;51.514;-0.178;2023-05-08T11:02:50;101513.69;;;17.87;75.59
43420;BME280;29017;51.514;-0.178;2023-05-08T11:05:18;101515.59;;;17.93;76.72
43420;BME280;29017;51.514;-0.178;2023-05-08T11:07:55;101518.91;;;17.95;78.03
43420;BME280;29017;51.514;-0.178;2023-05-08T11:10:29;101514.97;;;17.91;76.74
43420;BME280;29017;51.514;-0.178;2023-05-08T11:12:58;101520.47;;;17.90;77.63
43420;BME280;29017;51.514;-0.178;2023-05-08T11:18:03;101512.91;;;17.93;77.21
43420;BME280;29017;51.514;-0.178;2023-05-08T11:20:37;101499.31;;;17.88;76.60
43420;BME280;29017;51.514;-0.178;2023-05-08T11:25:42;101505.31;;;17.90;76.44
43420;BME280;29017;51.514;-0.178;2023-05-08T11:28:09;101494.22;;;17.87;75.86
43420;BME280;29017;51.514;-0.178;2023-05-08T11:30:38;101503.94;;;17.80;76.55
43420;BME280;29017;51.514;-0.178;2023-05-08T11:40:46;101512.84;;;17.72;76.40
43420;BME280;29017;51.514;-0.178;2023-05-08T11:43:22;101507.25;;;17.67;75.98
43420;BME280;29017;51.514;-0.178;2023-05-08T11:45:51;101507.31;;;17.59;75.47
43420;BME280;29017;51.514;-0.178;2023-05-08T11:48:19;101511.84;;;17.50;74.96
43420;BME280;29017;51.514;-0.178;2023-05-08T11:50:46;101510.19;;;17.49;76.17
43420;BME280;29017;51.514;-0.178;2023-05-08T11:53:14;101516.34;;;17.50;75.39
43420;BME280;29017;51.514;-0.178;2023-05-08T11:55:41;101516.34;;;17.50;76.08
43420;BME280;29017;51.514;-0.178;2023-05-08T11:58:12;101519.56;;;17.45;75.66
43420;BME280;29017;51.514;-0.178;2023-05-08T12:00:40;101523.22;;;17.44;76.00
43420;BME280;29017;51.514;-0.178;2023-05-08T12:03:12;101518.28;;;17.41;76.45
43420;BME280;29017;51.514;-0.178;2023-05-08T12:05:40;101524.41;;;17.42;76.91
43420;BME280;29017;51.514;-0.178;2023-05-08T12:08:09;101524.75;;;17.39;76.90
43420;BME280;29017;51.514;-0.178;2023-05-08T12:10:40;101526.69;;;17.30;77.19
43420;BME280;29017;51.514;-0.178;2023-05-08T12:15:41;101525.28;;;17.20;78.77
43420;BME280;29017;51.514;-0.178;2023-05-08T12:18:09;101528.75;;;17.20;80.33
43420;BME280;29017;51.514;-0.178;2023-05-08T12:20:36;101534.91;;;17.21;81.31
43420;BME280;29017;51.514;-0.178;2023-05-08T12:23:03;101527.56;;;17.23;82.23
43420;BME280;29017;51.514;-0.178;2023-05-08T12:25:31;101515.63;;;17.19;81.56
43420;BME280;29017;51.514;-0.178;2023-05-08T12:27:58;101496.38;;;17.17;81.40
43420;BME280;29017;51.514;-0.178;2023-05-08T12:30:26;101502.78;;;17.22;82.23
43420;BME280;29017;51.514;-0.178;2023-05-08T12:32:54;101519.69;;;17.29;81.13
43420;BME280;29017;51.514;-0.178;2023-05-08T12:35:22;101519.81;;;17.36;81.11
43420;BME280;29017;51.514;-0.178;2023-05-08T12:37:50;101519.81;;;17.36;80.07
43420;BME280;29017;51.514;-0.178;2023-05-08T12:40:23;101509.16;;;17.36;79.82
43420;BME280;29017;51.514;-0.178;2023-05-08T12:42:51;101497.25;;;17.32;79.07
43420;BME280;29017;51.514;-0.178;2023-05-08T12:45:20;101504.56;;;17.30;79.11
43420;BME280;29017;51.514;-0.178;2023-05-08T12:47:49;101502.34;;;17.33;80.35
43420;BME280;29017;51.514;-0.178;2023-05-08T12:50:19;101492.00;;;17.38;79.50
43420;BME280;29017;51.514;-0.178;2023-05-08T12:52:48;101484.97;;;17.45;79.06
43420;BME280;29017;51.514;-0.178;2023-05-08T13:00:24;101484.88;;;17.53;76.55
43420;BME280;29017;51.514;-0.178;2023-05-08T13:02:53;101484.53;;;17.57;77.52
43420;BME280;29017;51.514;-0.178;2023-05-08T13:05:21;101485.84;;;17.61;76.89
43420;BME280;29017;51.514;-0.178;2023-05-08T13:07:49;101490.03;;;17.55;76.17
43420;BME280;29017;51.514;-0.178;2023-05-08T13:10:17;101495.16;;;17.57;76.27
43420;BME280;29017;51.514;-0.178;2023-05-08T13:12:49;101489.63;;;17.58;76.54
43420;BME280;29017;51.514;-0.178;2023-05-08T13:15:16;101478.84;;;17.60;76.91
43420;BME280;29017;51.514;-0.178;2023-05-08T13:17:43;101473.97;;;17.63;76.03
43420;BME280;29017;51.514;-0.178;2023-05-08T13:20:11;101475.56;;;17.72;77.33
43420;BME280;29017;51.514;-0.178;2023-05-08T13:22:38;101480.53;;;17.75;76.88
43420;BME280;29017;51.514;-0.178;2023-05-08T13:25:07;101480.78;;;17.80;77.32
43420;BME280;29017;51.514;-0.178;2023-05-08T13:27:34;101482.19;;;17.76;75.91
43420;BME280;29017;51.514;-0.178;2023-05-08T13:30:01;101481.53;;;17.74;75.95
43420;BME280;29017;51.514;-0.178;2023-05-08T13:32:29;101473.91;;;17.71;75.54
43420;BME280;29017;51.514;-0.178;2023-05-08T13:34:56;101480.06;;;17.72;76.27
43420;BME280;29017;51.514;-0.178;2023-05-08T13:37:26;101471.25;;;17.71;75.97
43420;BME280;29017;51.514;-0.178;2023-05-08T13:39:53;101463.25;;;17.71;76.59
43420;BME280;29017;51.514;-0.178;2023-05-08T13:42:21;101470.41;;;17.71;76.97
43420;BME280;29017;51.514;-0.178;2023-05-08T13:44:48;101464.16;;;17.64;76.56
43420;BME280;29017;51.514;-0.178;2023-05-08T13:47:15;101464.38;;;17.62;76.93
43420;BME280;29017;51.514;-0.178;2023-05-08T13:49:43;101458.22;;;17.62;77.78
43420;BME280;29017;51.514;-0.178;2023-05-08T13:52:10;101460.38;;;17.58;77.28
43420;BME280;29017;51.514;-0.178;2023-05-08T13:54:38;101466.53;;;17.59;79.30
43420;BME280;29017;51.514;-0.178;2023-05-08T13:57:05;101457.91;;;17.57;78.14
43420;BME280;29017;51.514;-0.178;2023-05-08T13:59:34;101450.75;;;17.57;78.63
43420;BME280;29017;51.514;-0.178;2023-05-08T14:02:01;101446.09;;;17.59;78.46
43420;BME280;29017;51.514;-0.178;2023-05-08T14:04:28;101452.69;;;17.63;79.32
43420;BME280;29017;51.514;-0.178;2023-05-08T14:06:56;101462.16;;;17.66;78.74